sensor_id;sensor_type;location;lat;lon;timestamp;P1;durP1;ratioP1;P2;durP2;ratioP2
5217;SDS011;26539;51.064;6.346;2023-04-29T00:01:08;28.63;;;19.03;;
5217;SDS011;26539;51.064;6.346;2023-04-29T00:03:34;27.53;;;20.10;;
5217;SDS011;26539;51.064;6.346;2023-04-29T00:06:00;32.80;;;20.43;;
5217;SDS011;26539;51.064;6.346;2023-04-29T00:08:28;30.77;;;20.77;;
5217;SDS011;26539;51.064;6.346;2023-04-29T00:10:53;29.63;;;21.07;;
5217;SDS011;26539;51.064;6.346;2023-04-29T00:13:28;28.33;;;21.73;;
5217;SDS011;26539;51.064;6.346;2023-04-29T00:15:54;30.77;;;21.17;;
5217;SDS011;26539;51.064;6.346;2023-04-29T00:18:19;29.33;;;20.80;;
5217;SDS011;26539;51.064;6.346;2023-04-29T00:20:45;29.37;;;20.17;;
5217;SDS011;26539;51.064;6.346;2023-04-29T00:23:10;34.07;;;22.50;;
5217;SDS011;26539;51.064;6.346;2023-04-29T00:25:36;32.20;;;22.37;;
5217;SDS011;26539;51.064;6.346;2023-04-29T00:28:14;31.70;;;20.60;;
5217;SDS011;26539;51.064;6.346;2023-04-29T00:30:40;31.83;;;20.93;;
5217;SDS011;26539;51.064;6.346;2023-04-29T00:33:05;34.07;;;22.47;;
5217;SDS011;26539;51.064;6.346;2023-04-29T00:35:37;35.30;;;23.47;;
5217;SDS011;26539;51.064;6.346;2023-04-29T00:38:35;38.13;;;23.30;;
5217;SDS011;26539;51.064;6.346;2023-04-29T00:41:14;36.20;;;22.87;;
5217;SDS011;26539;51.064;6.346;2023-04-29T00:43:57;38.87;;;26.37;;
5217;SDS011;26539;51.064;6.346;2023-04-29T00:49:35;37.00;;;26.30;;
5217;SDS011;26539;51.064;6.346;2023-04-29T00:52:07;38.50;;;24.70;;
5217;SDS011;26539;51.064;6.346;2023-04-29T00:54:38;41.83;;;29.53;;
5217;SDS011;26539;51.064;6.346;2023-04-29T00:57:04;37.37;;;26.70;;
5217;SDS011;26539;51.064;6.346;2023-04-29T00:59:33;42.80;;;28.30;;
5217;SDS011;26539;51.064;6.346;2023-04-29T01:02:05;43.43;;;28.17;;
5217;SDS011;26539;51.064;6.346;2023-04-29T01:04:31;45.10;;;28.47;;
5217;SDS011;26539;51.064;6.346;2023-04-29T01:07:00;44.43;;;28.07;;
5217;SDS011;26539;51.064;6.346;2023-04-29T01:15:21;45.67;;;29.57;;
5217;SDS011;26539;51.064;6.346;2023-04-29T01:17:58;42.90;;;27.37;;
5217;SDS011;26539;51.064;6.346;2023-04-29T01:20:33;48.20;;;29.60;;
5217;SDS011;26539;51.064;6.346;2023-04-29T01:23:01;44.50;;;29.43;;
5217;SDS011;26539;51.064;6.346;2023-04-29T01:25:27;48.20;;;30.73;;
5217;SDS011;26539;51.064;6.346;2023-04-29T01:28:01;45.93;;;30.70;;
5217;SDS011;26539;51.064;6.346;2023-04-29T01:30:58;50.30;;;29.73;;
5217;SDS011;26539;51.064;6.346;2023-04-29T01:41:56;59.70;;;35.60;;
5217;SDS011;26539;51.064;6.346;2023-04-29T01:44:29;55.33;;;34.00;;
5217;SDS011;26539;51.064;6.346;2023-04-29T01:46:58;60.13;;;35.10;;
5217;SDS011;26539;51.064;6.346;2023-04-29T01:49:25;63.10;;;37.63;;
5217;SDS011;26539;51.064;6.346;2023-04-29T01:51:51;66.73;;;38.03;;
5217;SDS011;26539;51.064;6.346;2023-04-29T01:54:17;70.33;;;39.70;;
5217;SDS011;26539;51.064;6.346;2023-04-29T01:56:42;74.83;;;41.93;;
5217;SDS011;26539;51.064;6.346;2023-04-29T01:59:08;79.87;;;40.57;;
5217;SDS011;26539;51.064;6.346;2023-04-29T02:01:34;82.00;;;41.43;;
5217;SDS011;26539;51.064;6.346;2023-04-29T02:04:00;78.80;;;42.67;;
5217;SDS011;26539;51.064;6.346;2023-04-29T02:06:26;84.27;;;43.80;;
5217;SDS011;26539;51.064;6.346;2023-04-29T02:08:52;92.67;;;46.17;;
5217;SDS011;26539;51.064;6.346;2023-04-29T02:11:17;81.43;;;43.60;;
5217;SDS011;26539;51.064;6.346;2023-04-29T02:13:43;89.20;;;44.97;;
5217;SDS011;26539;51.064;6.346;2023-04-29T02:16:12;96.43;;;47.10;;
5217;SDS011;26539;51.064;6.346;2023-04-29T02:18:38;96.73;;;49.80;;
5217;SDS011;26539;51.064;6.346;2023-04-29T02:21:05;95.67;;;50.63;;
5217;SDS011;26539;51.064;6.346;2023-04-29T02:23:31;93.90;;;50.70;;
5217;SDS011;26539;51.064;6.346;2023-04-29T02:25:57;99.10;;;51.90;;
5217;SDS011;26539;51.064;6.346;2023-04-29T02:28:23;104.90;;;48.80;;
5217;SDS011;26539;51.064;6.346;2023-04-29T02:30:48;91.63;;;49.37;;
5217;SDS011;26539;51.064;6.346;2023-04-29T02:33:14;95.93;;;51.30;;
5217;SDS011;26539;51.064;6.346;2023-04-29T02:35:40;83.20;;;47.70;;
5217;SDS011;26539;51.064;6.346;2023-04-29T02:38:06;92.90;;;46.47;;
5217;SDS011;26539;51.064;6.346;2023-04-29T02:40:31;84.80;;;48.37;;
5217;SDS011;26539;51.064;6.346;2023-04-29T02:42:57;94.00;;;48.00;;
5217;SDS011;26539;51.064;6.346;2023-04-29T02:45:22;84.47;;;46.73;;
5217;SDS011;26539;51.064;6.346;2023-04-29T02:47:48;97.80;;;49.23;;
5217;SDS011;26539;51.064;6.346;2023-04-29T02:50:14;88.40;;;48.30;;
5217;SDS011;26539;51.064;6.346;2023-04-29T02:52:39;85.07;;;45.43;;
5217;SDS011;26539;51.064;6.346;2023-04-29T02:55:06;90.60;;;44.73;;
5217;SDS011;26539;51.064;6.346;2023-04-29T02:57:31;90.83;;;44.13;;
5217;SDS011;26539;51.064;6.346;2023-04-29T02:59:57;102.10;;;48.30;;
5217;SDS011;26539;51.064;6.346;2023-04-29T03:02:23;99.13;;;43.30;;
5217;SDS011;26539;51.064;6.346;2023-04-29T03:04:49;87.93;;;41.07;;
5217;SDS011;26539;51.064;6.346;2023-04-29T03:07:14;84.97;;;39.20;;
5217;SDS011;26539;51.064;6.346;2023-04-29T03:09:41;88.80;;;39.77;;
5217;SDS011;26539;51.064;6.346;2023-04-29T03:12:06;91.43;;;38.80;;
5217;SDS011;26539;51.064;6.346;2023-04-29T03:14:32;86.77;;;38.20;;
5217;SDS011;26539;51.064;6.346;2023-04-29T03:16:57;90.83;;;38.70;;
5217;SDS011;26539;51.064;6.346;2023-04-29T03:19:23;102.03;;;40.70;;
5217;SDS011;26539;51.064;6.346;2023-04-29T03:21:49;87.20;;;35.57;;
5217;SDS011;26539;51.064;6.346;2023-04-29T03:24:14;84.00;;;37.07;;
5217;SDS011;26539;51.064;6.346;2023-04-29T03:26:40;100.73;;;39.50;;
5217;SDS011;26539;51.064;6.346;2023-04-29T03:29:07;88.67;;;37.90;;
5217;SDS011;26539;51.064;6.346;2023-04-29T03:31:33;93.43;;;39.67;;
5217;SDS011;26539;51.064;6.346;2023-04-29T03:33:58;80.10;;;37.13;;
5217;SDS011;26539;51.064;6.346;2023-04-29T03:36:24;79.40;;;36.17;;
5217;SDS011;26539;51.064;6.346;2023-04-29T03:38:49;69.03;;;36.27;;
5217;SDS011;26539;51.064;6.346;2023-04-29T03:41:15;73.57;;;35.27;;
5217;SDS011;26539;51.064;6.346;2023-04-29T03:43:41;74.60;;;38.27;;
5217;SDS011;26539;51.064;6.346;2023-04-29T03:46:08;75.43;;;36.77;;
5217;SDS011;26539;51.064;6.346;2023-04-29T03:48:34;69.80;;;36.07;;
5217;SDS011;26539;51.064;6.346;2023-04-29T03:51:00;76.60;;;35.87;;
5217;SDS011;26539;51.064;6.346;2023-04-29T03:53:26;78.03;;;36.80;;
5217;SDS011;26539;51.064;6.346;2023-04-29T03:55:51;69.23;;;34.37;;
5217;SDS011;26539;51.064;6.346;2023-04-29T03:58:17;62.30;;;33.20;;
5217;SDS011;26539;51.064;6.346;2023-04-29T04:00:43;52.80;;;29.87;;
5217;SDS011;26539;51.064;6.346;2023-04-29T04:03:08;59.00;;;28.30;;
5217;SDS011;26539;51.064;6.346;2023-04-29T04:05:34;51.60;;;27.70;;
5217;SDS011;26539;51.064;6.346;2023-04-29T04:07:59;49.03;;;27.40;;
5217;SDS011;26539;51.064;6.346;2023-04-29T04:10:25;56.13;;;27.00;;
5217;SDS011;26539;51.064;6.346;2023-04-29T04:12:52;50.27;;;25.97;;
5217;SDS011;26539;51.064;6.346;2023-04-29T04:15:17;49.87;;;26.53;;
5217;SDS011;26539;51.064;6.346;2023-04-29T04:17:43;49.07;;;26.80;;
5217;SDS011;26539;51.064;6.346;2023-04-29T04:20:09;53.80;;;27.90;;
5217;SDS011;26539;51.064;6.346;2023-04-29T04:22:35;64.57;;;33.10;;
5217;SDS011;26539;51.064;6.346;2023-04-29T04:25:00;57.43;;;30.60;;
5217;SDS011;26539;51.064;6.346;2023-04-29T04:27:26;56.63;;;28.50;;
5217;SDS011;26539;51.064;6.346;2023-04-29T04:29:54;70.90;;;35.87;;
5217;SDS011;26539;51.064;6.346;2023-04-29T04:32:20;65.30;;;34.27;;
5217;SDS011;26539;51.064;6.346;2023-04-29T04:34:47;60.60;;;30.67;;
5217;SDS011;26539;51.064;6.346;2023-04-29T04:37:13;53.00;;;29.40;;
5217;SDS011;26539;51.064;6.346;2023-04-29T04:39:38;51.07;;;28.70;;
5217;SDS011;26539;51.064;6.346;2023-04-29T04:42:04;62.93;;;29.20;;
5217;SDS011;26539;51.064;6.346;2023-04-29T04:44:30;64.50;;;30.20;;
5217;SDS011;26539;51.064;6.346;2023-04-29T04:46:56;58.07;;;29.70;;
5217;SDS011;26539;51.064;6.346;2023-04-29T04:49:24;55.77;;;30.93;;
5217;SDS011;26539;51.064;6.346;2023-04-29T04:51:50;59.57;;;29.93;;
5217;SDS011;26539;51.064;6.346;2023-04-29T04:54:15;50.73;;;28.90;;
5217;SDS011;26539;51.064;6.346;2023-04-29T04:56:41;53.50;;;27.90;;
5217;SDS011;26539;51.064;6.346;2023-04-29T04:59:07;56.70;;;30.83;;
5217;SDS011;26539;51.064;6.346;2023-04-29T05:01:32;59.60;;;30.10;;
5217;SDS011;26539;51.064;6.346;2023-04-29T05:03:58;56.10;;;26.80;;
5217;SDS011;26539;51.064;6.346;2023-04-29T05:06:24;56.20;;;26.87;;
5217;SDS011;26539;51.064;6.346;2023-04-29T05:08:50;49.53;;;26.63;;
5217;SDS011;26539;51.064;6.346;2023-04-29T05:11:16;49.77;;;25.27;;
5217;SDS011;26539;51.064;6.346;2023-04-29T05:13:42;43.87;;;22.87;;
5217;SDS011;26539;51.064;6.346;2023-04-29T05:16:08;40.03;;;22.57;;
5217;SDS011;26539;51.064;6.346;2023-04-29T05:18:33;40.80;;;22.00;;
5217;SDS011;26539;51.064;6.346;2023-04-29T05:20:59;41.47;;;23.03;;
5217;SDS011;26539;51.064;6.346;2023-04-29T05:23:24;41.33;;;21.57;;
5217;SDS011;26539;51.064;6.346;2023-04-29T05:25:50;43.33;;;21.30;;
5217;SDS011;26539;51.064;6.346;2023-04-29T05:28:15;40.03;;;21.03;;
5217;SDS011;26539;51.064;6.346;2023-04-29T05:30:41;36.73;;;20.57;;
5217;SDS011;26539;51.064;6.346;2023-04-29T05:33:07;41.50;;;23.10;;
5217;SDS011;26539;51.064;6.346;2023-04-29T05:35:33;35.03;;;21.37;;
5217;SDS011;26539;51.064;6.346;2023-04-29T05:37:58;34.83;;;21.40;;
5217;SDS011;26539;51.064;6.346;2023-04-29T05:40:24;34.13;;;22.20;;
5217;SDS011;26539;51.064;6.346;2023-04-29T05:42:49;37.40;;;20.93;;
5217;SDS011;26539;51.064;6.346;2023-04-29T05:45:15;36.43;;;20.57;;
5217;SDS011;26539;51.064;6.346;2023-04-29T05:47:41;38.80;;;22.23;;
5217;SDS011;26539;51.064;6.346;2023-04-29T05:50:06;36.87;;;21.87;;
5217;SDS011;26539;51.064;6.346;2023-04-29T05:52:32;34.27;;;21.27;;
5217;SDS011;26539;51.064;6.346;2023-04-29T05:54:58;37.43;;;21.43;;
5217;SDS011;26539;51.064;6.346;2023-04-29T05:57:23;36.33;;;20.13;;
5217;SDS011;26539;51.064;6.346;2023-04-29T05:59:49;33.27;;;20.40;;
5217;SDS011;26539;51.064;6.346;2023-04-29T06:02:14;32.33;;;19.93;;
5217;SDS011;26539;51.064;6.346;2023-04-29T06:04:40;38.37;;;21.60;;
5217;SDS011;26539;51.064;6.346;2023-04-29T06:07:05;39.97;;;21.00;;
5217;SDS011;26539;51.064;6.346;2023-04-29T06:09:33;32.87;;;18.87;;
5217;SDS011;26539;51.064;6.346;2023-04-29T06:11:59;29.97;;;20.13;;
5217;SDS011;26539;51.064;6.346;2023-04-29T06:14:25;32.00;;;19.00;;
5217;SDS011;26539;51.064;6.346;2023-04-29T06:16:51;32.90;;;19.80;;
5217;SDS011;26539;51.064;6.346;2023-04-29T06:19:17;32.07;;;18.77;;
5217;SDS011;26539;51.064;6.346;2023-04-29T06:21:43;30.27;;;19.83;;
5217;SDS011;26539;51.064;6.346;2023-04-29T06:24:08;31.43;;;17.33;;
5217;SDS011;26539;51.064;6.346;2023-04-29T06:26:34;26.07;;;17.60;;
5217;SDS011;26539;51.064;6.346;2023-04-29T06:29:00;26.10;;;17.03;;
5217;SDS011;26539;51.064;6.346;2023-04-29T06:31:26;24.77;;;18.10;;
5217;SDS011;26539;51.064;6.346;2023-04-29T06:33:51;22.90;;;15.33;;
5217;SDS011;26539;51.064;6.346;2023-04-29T06:36:17;26.67;;;16.87;;
5217;SDS011;26539;51.064;6.346;2023-04-29T06:38:42;25.40;;;17.17;;
5217;SDS011;26539;51.064;6.346;2023-04-29T06:41:08;31.40;;;17.73;;
5217;SDS011;26539;51.064;6.346;2023-04-29T06:43:36;22.80;;;16.27;;
5217;SDS011;26539;51.064;6.346;2023-04-29T06:46:02;26.43;;;15.80;;
5217;SDS011;26539;51.064;6.346;2023-04-29T06:48:28;24.67;;;16.20;;
5217;SDS011;26539;51.064;6.346;2023-04-29T06:50:54;24.80;;;16.13;;
5217;SDS011;26539;51.064;6.346;2023-04-29T06:53:21;25.07;;;16.50;;
5217;SDS011;26539;51.064;6.346;2023-04-29T06:55:48;24.00;;;14.33;;
5217;SDS011;26539;51.064;6.346;2023-04-29T06:58:17;24.93;;;16.90;;
5217;SDS011;26539;51.064;6.346;2023-04-29T07:00:43;23.70;;;16.43;;
5217;SDS011;26539;51.064;6.346;2023-04-29T07:03:10;22.97;;;16.37;;
5217;SDS011;26539;51.064;6.346;2023-04-29T07:05:36;27.47;;;16.80;;
5217;SDS011;26539;51.064;6.346;2023-04-29T07:08:06;23.60;;;15.93;;
5217;SDS011;26539;51.064;6.346;2023-04-29T07:10:32;23.67;;;16.17;;
5217;SDS011;26539;51.064;6.346;2023-04-29T07:12:57;22.57;;;14.60;;
5217;SDS011;26539;51.064;6.346;2023-04-29T07:15:24;24.50;;;16.73;;
5217;SDS011;26539;51.064;6.346;2023-04-29T07:17:50;25.77;;;17.80;;
5217;SDS011;26539;51.064;6.346;2023-04-29T07:20:16;29.60;;;17.80;;
5217;SDS011;26539;51.064;6.346;2023-04-29T07:22:44;28.83;;;19.47;;
5217;SDS011;26539;51.064;6.346;2023-04-29T07:25:10;34.87;;;22.77;;
5217;SDS011;26539;51.064;6.346;2023-04-29T07:27:36;35.60;;;22.67;;
5217;SDS011;26539;51.064;6.346;2023-04-29T07:30:02;31.60;;;21.70;;
5217;SDS011;26539;51.064;6.346;2023-04-29T07:32:28;28.53;;;21.30;;
5217;SDS011;26539;51.064;6.346;2023-04-29T07:34:58;27.87;;;17.93;;
5217;SDS011;26539;51.064;6.346;2023-04-29T07:37:23;28.60;;;19.07;;
5217;SDS011;26539;51.064;6.346;2023-04-29T07:39:49;22.73;;;15.50;;
5217;SDS011;26539;51.064;6.346;2023-04-29T07:42:15;25.77;;;17.03;;
5217;SDS011;26539;51.064;6.346;2023-04-29T07:44:43;24.60;;;14.77;;
5217;SDS011;26539;51.064;6.346;2023-04-29T07:47:17;22.80;;;15.60;;
5217;SDS011;26539;51.064;6.346;2023-04-29T07:49:49;21.80;;;14.90;;
5217;SDS011;26539;51.064;6.346;2023-04-29T07:52:37;20.23;;;16.10;;
5217;SDS011;26539;51.064;6.346;2023-04-29T07:55:06;24.17;;;16.10;;
5217;SDS011;26539;51.064;6.346;2023-04-29T07:57:49;20.60;;;14.80;;
5217;SDS011;26539;51.064;6.346;2023-04-29T08:00:17;22.57;;;14.90;;
5217;SDS011;26539;51.064;6.346;2023-04-29T08:02:55;23.47;;;16.03;;
5217;SDS011;26539;51.064;6.346;2023-04-29T08:05:23;25.23;;;15.80;;
5217;SDS011;26539;51.064;6.346;2023-04-29T08:07:54;25.60;;;14.80;;
5217;SDS011;26539;51.064;6.346;2023-04-29T08:11:01;24.43;;;14.63;;
5217;SDS011;26539;51.064;6.346;2023-04-29T08:13:34;21.70;;;15.73;;
5217;SDS011;26539;51.064;6.346;2023-04-29T08:16:12;22.00;;;15.30;;
5217;SDS011;26539;51.064;6.346;2023-04-29T08:19:07;27.33;;;16.50;;
5217;SDS011;26539;51.064;6.346;2023-04-29T08:21:35;23.93;;;15.10;;
5217;SDS011;26539;51.064;6.346;2023-04-29T08:24:01;23.93;;;16.90;;
5217;SDS011;26539;51.064;6.346;2023-04-29T08:26:27;23.33;;;16.23;;
5217;SDS011;26539;51.064;6.346;2023-04-29T08:28:52;27.70;;;18.27;;
5217;SDS011;26539;51.064;6.346;2023-04-29T08:31:20;26.90;;;17.00;;
5217;SDS011;26539;51.064;6.346;2023-04-29T08:33:48;26.53;;;16.53;;
5217;SDS011;26539;51.064;6.346;2023-04-29T08:36:19;19.60;;;14.00;;
5217;SDS011;26539;51.064;6.346;2023-04-29T08:38:45;27.17;;;15.90;;
5217;SDS011;26539;51.064;6.346;2023-04-29T08:41:12;22.93;;;16.90;;
5217;SDS011;26539;51.064;6.346;2023-04-29T08:43:40;24.33;;;16.20;;
5217;SDS011;26539;51.064;6.346;2023-04-29T08:46:08;32.63;;;16.50;;
5217;SDS011;26539;51.064;6.346;2023-04-29T08:48:37;22.60;;;15.50;;
5217;SDS011;26539;51.064;6.346;2023-04-29T08:51:05;22.27;;;16.70;;
5217;SDS011;26539;51.064;6.346;2023-04-29T08:53:31;19.50;;;14.63;;
5217;SDS011;26539;51.064;6.346;2023-04-29T08:55:57;21.80;;;14.10;;
5217;SDS011;26539;51.064;6.346;2023-04-29T08:58:31;17.67;;;13.63;;
5217;SDS011;26539;51.064;6.346;2023-04-29T09:01:00;15.73;;;12.93;;
5217;SDS011;26539;51.064;6.346;2023-04-29T09:03:28;18.70;;;13.80;;
5217;SDS011;26539;51.064;6.346;2023-04-29T09:06:00;17.83;;;12.00;;
5217;SDS011;26539;51.064;6.346;2023-04-29T09:08:27;16.27;;;13.20;;
5217;SDS011;26539;51.064;6.346;2023-04-29T09:10:53;16.40;;;12.93;;
5217;SDS011;26539;51.064;6.346;2023-04-29T09:13:24;17.50;;;13.30;;
5217;SDS011;26539;51.064;6.346;2023-04-29T09:15:50;16.70;;;14.40;;
5217;SDS011;26539;51.064;6.346;2023-04-29T09:23:52;16.33;;;13.27;;
5217;SDS011;26539;51.064;6.346;2023-04-29T09:26:19;15.87;;;12.73;;
5217;SDS011;26539;51.064;6.346;2023-04-29T09:28:46;17.20;;;15.30;;
5217;SDS011;26539;51.064;6.346;2023-04-29T09:31:13;15.00;;;13.27;;
5217;SDS011;26539;51.064;6.346;2023-04-29T09:33:52;17.53;;;14.03;;
5217;SDS011;26539;51.064;6.346;2023-04-29T09:39:24;18.00;;;14.13;;
5217;SDS011;26539;51.064;6.346;2023-04-29T09:44:26;15.17;;;11.40;;
5217;SDS011;26539;51.064;6.346;2023-04-29T09:47:02;16.17;;;12.80;;
5217;SDS011;26539;51.064;6.346;2023-04-29T09:52:11;16.80;;;12.80;;
5217;SDS011;26539;51.064;6.346;2023-04-29T09:54:38;15.70;;;13.70;;
5217;SDS011;26539;51.064;6.346;2023-04-29T09:57:05;16.33;;;13.60;;
5217;SDS011;26539;51.064;6.346;2023-04-29T09:59:36;19.83;;;13.80;;
5217;SDS011;26539;51.064;6.346;2023-04-29T10:02:09;16.90;;;13.60;;
5217;SDS011;26539;51.064;6.346;2023-04-29T10:04:43;21.20;;;16.30;;
5217;SDS011;26539;51.064;6.346;2023-04-29T10:07:13;19.40;;;15.40;;
5217;SDS011;26539;51.064;6.346;2023-04-29T10:09:40;23.10;;;16.90;;
5217;SDS011;26539;51.064;6.346;2023-04-29T10:12:06;19.67;;;15.07;;
5217;SDS011;26539;51.064;6.346;2023-04-29T10:14:34;22.53;;;14.73;;
5217;SDS011;26539;51.064;6.346;2023-04-29T10:17:15;20.50;;;14.97;;
5217;SDS011;26539;51.064;6.346;2023-04-29T10:19:52;18.80;;;14.97;;
5217;SDS011;26539;51.064;6.346;2023-04-29T10:22:28;23.57;;;17.53;;
5217;SDS011;26539;51.064;6.346;2023-04-29T10:24:57;25.13;;;15.33;;
5217;SDS011;26539;51.064;6.346;2023-04-29T10:27:25;23.50;;;16.67;;
5217;SDS011;26539;51.064;6.346;2023-04-29T10:29:52;25.90;;;18.57;;
5217;SDS011;26539;51.064;6.346;2023-04-29T10:32:20;24.67;;;18.97;;
5217;SDS011;26539;51.064;6.346;2023-04-29T10:34:46;23.87;;;17.87;;
5217;SDS011;26539;51.064;6.346;2023-04-29T10:37:13;24.47;;;19.53;;
5217;SDS011;26539;51.064;6.346;2023-04-29T10:40:00;26.13;;;17.90;;
5217;SDS011;26539;51.064;6.346;2023-04-29T10:42:45;26.67;;;19.30;;
5217;SDS011;26539;51.064;6.346;2023-04-29T10:45:26;28.67;;;19.53;;
5217;SDS011;26539;51.064;6.346;2023-04-29T10:50:29;30.77;;;19.67;;
5217;SDS011;26539;51.064;6.346;2023-04-29T10:52:56;25.67;;;18.90;;
5217;SDS011;26539;51.064;6.346;2023-04-29T10:55:30;29.30;;;20.87;;
5217;SDS011;26539;51.064;6.346;2023-04-29T11:01:16;27.20;;;19.23;;
5217;SDS011;26539;51.064;6.346;2023-04-29T11:04:00;26.63;;;21.40;;
5217;SDS011;26539;51.064;6.346;2023-04-29T11:09:03;30.30;;;22.00;;
5217;SDS011;26539;51.064;6.346;2023-04-29T11:11:58;32.83;;;21.57;;
5217;SDS011;26539;51.064;6.346;2023-04-29T11:17:14;27.73;;;20.43;;
5217;SDS011;26539;51.064;6.346;2023-04-29T11:19:49;31.20;;;18.60;;
5217;SDS011;26539;51.064;6.346;2023-04-29T11:24:48;26.00;;;18.57;;
5217;SDS011;26539;51.064;6.346;2023-04-29T11:27:36;24.73;;;18.87;;
5217;SDS011;26539;51.064;6.346;2023-04-29T11:30:03;31.40;;;20.10;;
5217;SDS011;26539;51.064;6.346;2023-04-29T11:32:32;30.20;;;20.77;;
5217;SDS011;26539;51.064;6.346;2023-04-29T11:37:41;26.03;;;17.90;;
5217;SDS011;26539;51.064;6.346;2023-04-29T11:40:07;27.00;;;20.83;;
5217;SDS011;26539;51.064;6.346;2023-04-29T11:42:35;25.97;;;19.23;;
5217;SDS011;26539;51.064;6.346;2023-04-29T11:45:04;22.90;;;18.03;;
5217;SDS011;26539;51.064;6.346;2023-04-29T11:47:30;28.00;;;17.80;;
5217;SDS011;26539;51.064;6.346;2023-04-29T11:50:03;25.53;;;19.07;;
5217;SDS011;26539;51.064;6.346;2023-04-29T11:52:33;27.77;;;19.73;;
5217;SDS011;26539;51.064;6.346;2023-04-29T11:55:01;25.17;;;19.43;;
5217;SDS011;26539;51.064;6.346;2023-04-29T11:57:31;26.93;;;19.50;;
5217;SDS011;26539;51.064;6.346;2023-04-29T11:59:57;26.20;;;19.93;;
5217;SDS011;26539;51.064;6.346;2023-04-29T12:02:29;26.37;;;19.67;;
5217;SDS011;26539;51.064;6.346;2023-04-29T12:04:55;28.80;;;20.00;;
5217;SDS011;26539;51.064;6.346;2023-04-29T12:07:22;21.43;;;18.80;;
5217;SDS011;26539;51.064;6.346;2023-04-29T12:09:48;25.37;;;19.17;;
5217;SDS011;26539;51.064;6.346;2023-04-29T12:12:16;34.37;;;19.77;;
5217;SDS011;26539;51.064;6.346;2023-04-29T12:14:42;28.03;;;20.43;;
5217;SDS011;26539;51.064;6.346;2023-04-29T12:17:08;31.03;;;19.17;;
5217;SDS011;26539;51.064;6.346;2023-04-29T12:19:34;23.70;;;18.70;;
5217;SDS011;26539;51.064;6.346;2023-04-29T12:22:02;24.87;;;19.23;;
5217;SDS011;26539;51.064;6.346;2023-04-29T12:24:31;24.60;;;19.60;;
5217;SDS011;26539;51.064;6.346;2023-04-29T12:27:01;27.03;;;20.90;;
5217;SDS011;26539;51.064;6.346;2023-04-29T12:29:26;25.10;;;19.97;;
5217;SDS011;26539;51.064;6.346;2023-04-29T12:31:52;26.23;;;19.53;;
5217;SDS011;26539;51.064;6.346;2023-04-29T12:34:53;22.20;;;18.97;;
5217;SDS011;26539;51.064;6.346;2023-04-29T12:37:22;26.03;;;19.57;;
5217;SDS011;26539;51.064;6.346;2023-04-29T12:39:48;22.20;;;17.33;;
5217;SDS011;26539;51.064;6.346;2023-04-29T12:42:14;19.40;;;17.40;;
5217;SDS011;26539;51.064;6.346;2023-04-29T12:44:44;23.50;;;17.50;;
5217;SDS011;26539;51.064;6.346;2023-04-29T12:47:11;21.00;;;18.40;;
5217;SDS011;26539;51.064;6.346;2023-04-29T12:49:40;20.90;;;16.60;;
5217;SDS011;26539;51.064;6.346;2023-04-29T12:52:07;21.03;;;18.80;;
5217;SDS011;26539;51.064;6.346;2023-04-29T12:54:36;18.70;;;16.77;;
5217;SDS011;26539;51.064;6.346;2023-04-29T12:57:04;20.70;;;17.13;;
5217;SDS011;26539;51.064;6.346;2023-04-29T12:59:30;22.33;;;17.90;;
5217;SDS011;26539;51.064;6.346;2023-04-29T13:01:56;19.53;;;17.00;;
5217;SDS011;26539;51.064;6.346;2023-04-29T13:04:21;18.77;;;16.87;;
5217;SDS011;26539;51.064;6.346;2023-04-29T13:06:47;18.70;;;16.70;;
5217;SDS011;26539;51.064;6.346;2023-04-29T13:09:12;19.43;;;17.53;;
5217;SDS011;26539;51.064;6.346;2023-04-29T13:11:38;20.87;;;16.67;;
5217;SDS011;26539;51.064;6.346;2023-04-29T13:14:04;17.50;;;15.63;;
5217;SDS011;26539;51.064;6.346;2023-04-29T13:16:33;19.43;;;16.47;;
5217;SDS011;26539;51.064;6.346;2023-04-29T13:18:59;17.00;;;15.30;;
5217;SDS011;26539;51.064;6.346;2023-04-29T13:21:28;15.67;;;14.10;;
5217;SDS011;26539;51.064;6.346;2023-04-29T13:24:22;16.90;;;15.20;;
5217;SDS011;26539;51.064;6.346;2023-04-29T13:26:51;16.73;;;14.93;;
5217;SDS011;26539;51.064;6.346;2023-04-29T13:29:19;17.03;;;15.23;;
5217;SDS011;26539;51.064;6.346;2023-04-29T13:35:10;17.23;;;14.27;;
5217;SDS011;26539;51.064;6.346;2023-04-29T13:38:04;17.10;;;14.80;;
5217;SDS011;26539;51.064;6.346;2023-04-29T13:44:11;14.10;;;12.80;;
5217;SDS011;26539;51.064;6.346;2023-04-29T14:22:12;13.43;;;12.00;;
5217;SDS011;26539;51.064;6.346;2023-04-29T14:24:37;15.43;;;11.60;;
5217;SDS011;26539;51.064;6.346;2023-04-29T14:27:03;14.40;;;12.07;;
5217;SDS011;26539;51.064;6.346;2023-04-29T14:36:40;13.90;;;12.10;;
5217;SDS011;26539;51.064;6.346;2023-04-29T14:39:14;15.20;;;11.57;;
5217;SDS011;26539;51.064;6.346;2023-04-29T14:45:55;14.07;;;11.73;;
5217;SDS011;26539;51.064;6.346;2023-04-29T14:51:23;12.10;;;10.87;;
5217;SDS011;26539;51.064;6.346;2023-04-29T14:56:24;14.47;;;11.73;;
5217;SDS011;26539;51.064;6.346;2023-04-29T14:58:54;14.00;;;11.77;;
5217;SDS011;26539;51.064;6.346;2023-04-29T15:01:20;13.70;;;11.93;;
5217;SDS011;26539;51.064;6.346;2023-04-29T15:03:45;19.07;;;12.60;;
5217;SDS011;26539;51.064;6.346;2023-04-29T15:06:22;12.63;;;11.43;;
5217;SDS011;26539;51.064;6.346;2023-04-29T15:19:31;16.50;;;10.53;;
5217;SDS011;26539;51.064;6.346;2023-04-29T15:22:42;11.13;;;9.93;;
5217;SDS011;26539;51.064;6.346;2023-04-29T15:42:30;13.57;;;10.70;;
5217;SDS011;26539;51.064;6.346;2023-04-29T15:45:43;13.47;;;11.37;;
5217;SDS011;26539;51.064;6.346;2023-04-29T15:52:50;15.63;;;12.10;;
5217;SDS011;26539;51.064;6.346;2023-04-29T16:15:18;11.83;;;10.40;;
5217;SDS011;26539;51.064;6.346;2023-04-29T16:21:14;12.73;;;10.60;;
5217;SDS011;26539;51.064;6.346;2023-04-29T16:24:30;13.17;;;10.53;;
5217;SDS011;26539;51.064;6.346;2023-04-29T16:26:55;14.63;;;10.50;;
5217;SDS011;26539;51.064;6.346;2023-04-29T16:29:22;10.53;;;9.43;;
5217;SDS011;26539;51.064;6.346;2023-04-29T16:32:13;14.23;;;10.20;;
5217;SDS011;26539;51.064;6.346;2023-04-29T16:34:41;12.10;;;10.33;;
5217;SDS011;26539;51.064;6.346;2023-04-29T16:44:23;11.93;;;10.30;;
5217;SDS011;26539;51.064;6.346;2023-04-29T16:47:21;12.67;;;10.47;;
5217;SDS011;26539;51.064;6.346;2023-04-29T16:53:18;11.80;;;10.70;;
5217;SDS011;26539;51.064;6.346;2023-04-29T16:55:44;12.20;;;11.00;;
5217;SDS011;26539;51.064;6.346;2023-04-29T16:58:15;11.97;;;10.60;;
5217;SDS011;26539;51.064;6.346;2023-04-29T17:00:58;11.67;;;10.47;;
5217;SDS011;26539;51.064;6.346;2023-04-29T17:03:29;15.37;;;11.37;;
5217;SDS011;26539;51.064;6.346;2023-04-29T17:06:00;13.80;;;10.20;;
5217;SDS011;26539;51.064;6.346;2023-04-29T17:08:29;12.37;;;10.63;;
5217;SDS011;26539;51.064;6.346;2023-04-29T17:10:57;14.40;;;10.93;;
5217;SDS011;26539;51.064;6.346;2023-04-29T17:13:22;13.30;;;10.63;;
5217;SDS011;26539;51.064;6.346;2023-04-29T17:15:54;11.90;;;10.47;;
5217;SDS011;26539;51.064;6.346;2023-04-29T17:18:19;11.67;;;10.13;;
5217;SDS011;26539;51.064;6.346;2023-04-29T17:20:54;13.23;;;11.00;;
5217;SDS011;26539;51.064;6.346;2023-04-29T17:26:12;11.87;;;10.50;;
5217;SDS011;26539;51.064;6.346;2023-04-29T17:28:38;15.43;;;11.53;;
5217;SDS011;26539;51.064;6.346;2023-04-29T17:31:03;12.27;;;11.00;;
5217;SDS011;26539;51.064;6.346;2023-04-29T17:33:30;12.13;;;10.90;;
5217;SDS011;26539;51.064;6.346;2023-04-29T17:36:06;12.87;;;11.40;;
5217;SDS011;26539;51.064;6.346;2023-04-29T17:38:41;13.50;;;11.50;;
5217;SDS011;26539;51.064;6.346;2023-04-29T17:41:09;13.00;;;11.60;;